createdAt,value
2022-08-05T00:00:50.772Z,67.37
2022-08-05T00:03:52.523Z,67.36
2022-08-05T00:06:54.839Z,67.43
2022-08-05T00:09:57.532Z,67.57
2022-08-05T00:13:00.272Z,67.76
2022-08-05T00:16:02.176Z,67.92
2022-08-05T00:19:04.983Z,67.82
2022-08-05T00:22:07.630Z,67.78
2022-08-05T00:25:14.349Z,67.96
2022-08-05T00:28:21.185Z,67.92
2022-08-05T00:31:54.035Z,67.88
2022-08-05T00:35:06.695Z,67.99
2022-08-05T00:38:09.534Z,68.25
2022-08-05T00:41:11.657Z,68.25
2022-08-05T00:44:13.851Z,68.86
2022-08-05T00:47:16.468Z,68.67
2022-08-05T00:50:18.786Z,68.84
2022-08-05T00:53:45.031Z,69.24
2022-08-05T00:56:51.298Z,69.33
2022-08-05T00:59:53.748Z,69.83
2022-08-05T01:02:56.724Z,69.86
2022-08-05T01:05:58.777Z,70.39
2022-08-05T01:09:00.589Z,70.71
2022-08-05T01:12:18.703Z,71.26
2022-08-05T01:15:36.502Z,71.30
2022-08-05T01:18:43.118Z,71.53
2022-08-05T01:22:07.029Z,72.05
2022-08-05T01:25:43.612Z,72.08
2022-08-05T01:29:08.900Z,72.20
2022-08-05T01:32:18.546Z,72.20
2022-08-05T01:35:50.678Z,72.76
2022-08-05T01:38:49.966Z,72.75
2022-08-05T01:41:54.495Z,72.76
2022-08-05T01:44:59.919Z,73.00
2022-08-05T01:48:10.462Z,73.29
2022-08-05T01:51:14.502Z,73.46
2022-08-05T01:54:20.209Z,73.31
2022-08-05T01:58:12.557Z,73.36
2022-08-05T02:00:56.740Z,73.14
2022-08-05T02:04:01.547Z,73.21
2022-08-05T02:07:03.576Z,72.80
2022-08-05T02:10:08.307Z,73.22
2022-08-05T02:13:17.269Z,73.20
2022-08-05T02:16:44.161Z,73.37
2022-08-05T02:19:54.783Z,73.15
2022-08-05T02:23:03.065Z,73.16
2022-08-05T02:26:09.532Z,73.06
2022-08-05T02:29:21.614Z,72.88
2022-08-05T02:32:31.489Z,72.65
2022-08-05T02:35:38.543Z,73.07
2022-08-05T02:38:56.031Z,72.98
2022-08-05T02:42:01.656Z,72.80
2022-08-05T02:45:03.831Z,73.04
2022-08-05T02:48:12.377Z,73.20
2022-08-05T02:51:17.164Z,73.47
2022-08-05T02:54:35.793Z,73.80
2022-08-05T02:58:10.667Z,73.90
2022-08-05T03:01:02.809Z,74.31
2022-08-05T03:04:13.970Z,74.46
2022-08-05T03:07:17.621Z,74.61
2022-08-05T03:10:38.074Z,74.76
2022-08-05T03:13:52.095Z,75.11
2022-08-05T03:17:02.692Z,75.18
2022-08-05T03:20:10.152Z,75.38
2022-08-05T03:23:12.866Z,75.49
2022-08-05T03:26:31.755Z,75.39
2022-08-05T03:29:45.796Z,75.19
2022-08-05T03:32:56.796Z,75.39
2022-08-05T03:35:58.998Z,75.61
2022-08-05T03:39:07.805Z,76.08
2022-08-05T03:42:09.632Z,75.86
2022-08-05T03:45:22.087Z,75.81
2022-08-05T03:48:25.303Z,75.90
2022-08-05T03:52:37.397Z,76.29
2022-08-05T03:56:05.120Z,75.85
2022-08-05T03:58:36.747Z,75.87
2022-08-05T04:01:42.471Z,75.90
2022-08-05T04:04:47.635Z,76.21
2022-08-05T04:07:57.543Z,76.46
2022-08-05T04:11:03.238Z,76.39
2022-08-05T04:14:05.291Z,76.45
2022-08-05T04:17:09.281Z,76.54
2022-08-05T04:20:21.113Z,76.43
2022-08-05T04:23:57.109Z,76.52
2022-08-05T04:26:48.789Z,76.92
2022-08-05T04:29:50.446Z,76.49
2022-08-05T04:32:52.643Z,76.76
2022-08-05T04:36:16.152Z,77.08
2022-08-05T04:39:16.061Z,77.29
2022-08-05T04:42:17.787Z,76.76
2022-08-05T04:45:47.729Z,77.09
2022-08-05T04:48:48.749Z,77.29
2022-08-05T04:51:58.262Z,77.22
2022-08-05T04:55:14.687Z,77.49
2022-08-05T04:58:20.193Z,77.62
2022-08-05T05:02:08.030Z,77.23
2022-08-05T05:04:47.857Z,76.66
2022-08-05T05:07:52.895Z,75.82
2022-08-05T05:10:58.343Z,75.83
2022-08-05T05:14:00.818Z,75.84
2022-08-05T05:17:07.576Z,75.74
2022-08-05T05:20:13.106Z,75.67
2022-08-05T05:23:19.515Z,75.55
2022-08-05T05:26:28.451Z,75.98
2022-08-05T05:30:03.628Z,75.94
2022-08-05T05:32:56.364Z,74.74
2022-08-05T05:35:58.116Z,72.23
2022-08-05T05:39:03.764Z,71.19
2022-08-05T05:42:06.133Z,68.87
2022-08-05T05:45:09.234Z,67.84
2022-08-05T05:48:10.858Z,66.68
2022-08-05T05:51:22.232Z,65.00
2022-08-05T05:54:49.735Z,63.76
2022-08-05T05:57:52.767Z,63.38
2022-08-05T06:00:54.747Z,63.05
2022-08-05T06:04:01.700Z,62.94
2022-08-05T06:07:05.186Z,62.73
2022-08-05T06:10:10.513Z,61.35
2022-08-05T06:13:12.692Z,61.15
2022-08-05T06:16:28.596Z,60.79
2022-08-05T06:19:35.573Z,59.98
2022-08-05T06:22:37.578Z,59.64
2022-08-05T06:26:12.788Z,59.36
2022-08-05T06:29:23.658Z,59.24
2022-08-05T06:32:29.229Z,58.69
2022-08-05T06:36:07.702Z,58.17
2022-08-05T06:38:54.723Z,57.99
2022-08-05T06:42:03.859Z,57.97
2022-08-05T06:45:08.297Z,58.20
2022-08-05T06:48:36.497Z,57.02
2022-08-05T06:51:32.786Z,57.14
2022-08-05T06:54:34.711Z,57.08
2022-08-05T06:58:03.890Z,57.06
2022-08-05T07:01:01.123Z,56.47
2022-08-05T07:04:03.292Z,55.64
2022-08-05T07:07:08.008Z,55.44
2022-08-05T07:10:10.406Z,55.73
2022-08-05T07:13:57.184Z,55.45
2022-08-05T07:18:00.304Z,55.91
2022-08-05T07:20:38.914Z,55.94
2022-08-05T07:23:49.771Z,55.99
2022-08-05T07:26:53.872Z,55.63
2022-08-05T07:30:24.260Z,55.24
2022-08-05T07:33:21.483Z,54.99
2022-08-05T07:36:39.056Z,54.84
2022-08-05T07:40:04.290Z,54.86
2022-08-05T07:43:07.368Z,55.15
2022-08-05T07:46:24.390Z,54.89
2022-08-05T07:49:27.673Z,54.23
2022-08-05T07:52:29.618Z,54.64
2022-08-05T07:56:04.947Z,54.68
2022-08-05T07:58:57.766Z,55.00
2022-08-05T08:02:03.037Z,54.84
2022-08-05T08:05:05.529Z,54.75
2022-08-05T08:08:07.157Z,54.96
2022-08-05T08:11:15.975Z,54.08
2022-08-05T08:14:18.403Z,53.12
2022-08-05T08:17:21.713Z,53.28
2022-08-05T08:20:44.442Z,53.28
2022-08-05T08:24:01.571Z,53.71
2022-08-05T08:27:07.324Z,53.37
2022-08-05T08:30:28.465Z,53.47
2022-08-05T08:33:37.471Z,53.40
2022-08-05T08:36:49.946Z,53.51
2022-08-05T08:39:54.430Z,52.75
2022-08-05T08:42:56.618Z,52.58
2022-08-05T08:46:01.047Z,52.34
2022-08-05T08:50:23.236Z,52.13
2022-08-05T08:52:30.459Z,50.72
2022-08-05T08:56:03.653Z,51.09
2022-08-05T08:58:59.299Z,50.18
2022-08-05T09:02:18.465Z,50.28
2022-08-05T09:05:38.309Z,49.98
2022-08-05T09:08:40.878Z,49.48
2022-08-05T09:11:53.194Z,49.73
2022-08-05T09:15:05.772Z,48.79
2022-08-05T09:18:09.026Z,48.55
2022-08-05T09:21:11.488Z,46.57
2022-08-05T09:24:13.685Z,46.05
2022-08-05T09:28:04.170Z,44.64
2022-08-05T09:31:22.707Z,44.47
2022-08-05T09:34:26.464Z,44.83
2022-08-05T09:38:16.648Z,44.60
2022-08-05T09:40:53.593Z,44.35
2022-08-05T09:43:55.656Z,43.48
2022-08-05T09:47:12.819Z,42.89
2022-08-05T09:50:38.012Z,41.47
2022-08-05T09:53:55.207Z,41.51
2022-08-05T09:57:01.479Z,41.45
2022-08-05T10:00:14.077Z,41.07
2022-08-05T10:03:15.722Z,40.48
2022-08-05T10:06:19.955Z,40.23
2022-08-05T10:09:27.693Z,40.24
2022-08-05T10:12:40.951Z,40.12
2022-08-05T10:15:51.958Z,40.76
2022-08-05T10:20:03.192Z,40.03
2022-08-05T10:22:51.082Z,40.12
2022-08-05T10:25:54.977Z,40.21
2022-08-05T10:28:56.707Z,40.09
2022-08-05T10:32:54.350Z,39.75
2022-08-05T10:35:20.493Z,39.96
2022-08-05T10:38:36.996Z,40.12
2022-08-05T10:42:00.895Z,40.15
2022-08-05T10:45:21.007Z,40.32
2022-08-05T10:48:52.572Z,39.81
2022-08-05T10:52:03.282Z,39.84
2022-08-05T10:55:10.254Z,39.62
2022-08-05T10:58:17.950Z,39.20
2022-08-05T11:01:55.471Z,39.83
2022-08-05T11:04:55.247Z,39.03
2022-08-05T11:08:02.439Z,39.09
2022-08-05T11:11:52.019Z,38.92
2022-08-05T11:15:19.237Z,38.96
2022-08-05T11:18:29.964Z,38.77
2022-08-05T11:21:48.926Z,39.08
2022-08-05T11:26:05.450Z,39.54
2022-08-05T11:28:53.637Z,39.48
2022-08-05T11:32:26.570Z,38.44
2022-08-05T11:36:08.348Z,38.56
2022-08-05T11:39:12.168Z,38.58
2022-08-05T11:42:18.557Z,38.71
2022-08-05T11:46:14.497Z,38.34
2022-08-05T11:48:42.395Z,38.25
2022-08-05T11:51:49.772Z,37.99
2022-08-05T11:54:55.026Z,37.93
2022-08-05T11:58:09.649Z,37.78
2022-08-05T12:01:19.308Z,37.41
2022-08-05T12:04:21.805Z,37.67
2022-08-05T12:08:03.797Z,37.50
2022-08-05T12:10:48.878Z,37.51
2022-08-05T12:14:04.154Z,36.91
2022-08-05T12:18:03.651Z,36.55
2022-08-05T12:20:38.525Z,36.79
2022-08-05T12:23:43.171Z,37.02
2022-08-05T12:26:54.037Z,36.63
2022-08-05T12:30:06.198Z,36.78
2022-08-05T12:33:27.344Z,36.76
2022-08-05T12:36:30.762Z,36.84
2022-08-05T12:39:34.451Z,36.33
2022-08-05T12:42:40.122Z,35.96
2022-08-05T12:45:55.905Z,35.49
2022-08-05T12:49:18.902Z,35.41
2022-08-05T12:52:25.382Z,35.63
2022-08-05T12:55:32.487Z,35.18
2022-08-05T12:58:49.830Z,34.81
2022-08-05T13:02:07.113Z,34.20
2022-08-05T13:05:12.601Z,34.19
2022-08-05T13:08:18.384Z,33.45
2022-08-05T13:11:59.760Z,33.20
2022-08-05T13:14:46.273Z,33.10
2022-08-05T13:18:01.166Z,33.08
2022-08-05T13:21:02.939Z,32.82
2022-08-05T13:24:08.967Z,31.84
2022-08-05T13:27:11.039Z,32.08
2022-08-05T13:30:34.451Z,31.28
2022-08-05T13:34:23.086Z,30.67
2022-08-05T13:37:00.264Z,30.70
2022-08-05T13:40:16.065Z,30.82
2022-08-05T13:43:24.257Z,30.21
2022-08-05T13:47:04.986Z,29.66
2022-08-05T13:50:11.261Z,29.27
2022-08-05T13:53:15.798Z,29.66
2022-08-05T13:56:18.473Z,29.23
2022-08-05T13:59:24.235Z,28.85
2022-08-05T14:02:29.935Z,28.83
2022-08-05T14:06:24.478Z,27.87
2022-08-05T14:08:54.702Z,27.69
2022-08-05T14:12:04.298Z,28.12
2022-08-05T14:16:08.733Z,28.09
2022-08-05T14:18:39.653Z,27.67
2022-08-05T14:22:10.351Z,26.50
2022-08-05T14:25:06.310Z,26.35
2022-08-05T14:28:27.027Z,27.30
2022-08-05T14:32:02.296Z,27.40
2022-08-05T14:34:51.583Z,27.20
2022-08-05T14:37:55.450Z,26.74
2022-08-05T14:40:57.470Z,26.79
2022-08-05T14:44:09.799Z,26.72
2022-08-05T14:47:58.325Z,26.91
2022-08-05T14:50:43.529Z,26.50
2022-08-05T14:54:26.027Z,26.07
2022-08-05T14:57:09.593Z,26.29
2022-08-05T15:00:15.700Z,25.22
2022-08-05T15:03:21.600Z,25.16
2022-08-05T15:06:28.005Z,25.77
2022-08-05T15:09:52.169Z,25.15
2022-08-05T15:13:00.989Z,25.25
2022-08-05T15:16:05.665Z,24.92
2022-08-05T15:19:08.594Z,25.16
2022-08-05T15:22:27.162Z,25.36
2022-08-05T15:25:51.915Z,25.20
2022-08-05T15:28:52.090Z,25.06
2022-08-05T15:31:53.868Z,24.76
2022-08-05T15:34:55.956Z,24.71
2022-08-05T15:38:32.636Z,24.89
2022-08-05T15:41:24.403Z,24.28
2022-08-05T15:44:30.349Z,24.62
2022-08-05T15:47:32.579Z,24.17
2022-08-05T15:50:37.646Z,24.34
2022-08-05T15:53:51.231Z,24.36
2022-08-05T15:56:53.344Z,24.47
2022-08-05T15:59:57.792Z,24.90
2022-08-05T16:03:00.084Z,25.13
2022-08-05T16:06:02.361Z,25.51
2022-08-05T16:09:04.256Z,25.70
2022-08-05T16:12:06.531Z,26.65
2022-08-05T16:15:09.497Z,26.96
2022-08-05T16:18:12.320Z,27.13
2022-08-05T16:21:16.099Z,27.22
2022-08-05T16:24:39.897Z,27.54
2022-08-05T16:27:47.393Z,27.38
2022-08-05T16:31:03.397Z,27.88
2022-08-05T16:34:05.696Z,28.22
2022-08-05T16:38:02.248Z,28.36
2022-08-05T16:40:33.141Z,28.22
2022-08-05T16:43:35.242Z,28.56
2022-08-05T16:46:37.483Z,29.32
2022-08-05T16:49:43.072Z,29.58
2022-08-05T16:52:46.066Z,29.52
2022-08-05T16:55:47.914Z,29.86
2022-08-05T16:58:49.991Z,29.99
2022-08-05T17:01:53.602Z,30.24
2022-08-05T17:04:57.376Z,30.10
2022-08-05T17:07:59.034Z,30.21
2022-08-05T17:11:01.374Z,30.58
2022-08-05T17:14:06.285Z,30.76
2022-08-05T17:17:14.214Z,30.98
2022-08-05T17:20:16.632Z,31.23
2022-08-05T17:24:05.534Z,31.22
2022-08-05T17:26:40.869Z,31.28
2022-08-05T17:29:42.700Z,31.32
2022-08-05T17:32:44.496Z,31.17
2022-08-05T17:36:07.925Z,31.22
2022-08-05T17:39:23.793Z,33.11
2022-08-05T17:42:31.986Z,32.47
2022-08-05T17:45:38.665Z,35.31
2022-08-05T17:48:40.548Z,35.90
2022-08-05T17:51:46.873Z,36.63
2022-08-05T17:54:52.337Z,37.84
2022-08-05T17:57:54.254Z,38.60
2022-08-05T18:00:57.044Z,39.43
2022-08-05T18:04:04.571Z,40.22
2022-08-05T18:07:07.797Z,40.82
2022-08-05T18:10:21.430Z,40.87
2022-08-05T18:13:23.256Z,40.90
2022-08-05T18:16:27.441Z,41.13
2022-08-05T18:19:29.947Z,41.25
2022-08-05T18:22:46.018Z,42.03
2022-08-05T18:25:57.373Z,42.41
2022-08-05T18:29:00.340Z,42.50
2022-08-05T18:32:02.974Z,42.16
2022-08-05T18:35:05.253Z,42.46
2022-08-05T18:38:07.723Z,42.46
2022-08-05T18:41:57.051Z,43.45
2022-08-05T18:44:35.170Z,43.53
2022-08-05T18:47:56.688Z,43.09
2022-08-05T18:52:05.714Z,43.30
2022-08-05T18:54:42.750Z,43.55
2022-08-05T18:57:52.574Z,43.68
2022-08-05T19:00:58.525Z,43.81
2022-08-05T19:04:06.019Z,43.99
2022-08-05T19:07:14.008Z,44.47
2022-08-05T19:10:17.518Z,44.72
2022-08-05T19:13:19.767Z,44.48
2022-08-05T19:16:25.067Z,42.26
2022-08-05T19:19:30.867Z,41.21
2022-08-05T19:22:32.789Z,40.83
2022-08-05T19:25:42.011Z,40.47
2022-08-05T19:28:45.478Z,40.25
2022-08-05T19:31:50.886Z,40.70
2022-08-05T19:34:54.924Z,40.65
2022-08-05T19:38:06.575Z,41.29
2022-08-05T19:41:10.386Z,41.02
2022-08-05T19:44:13.250Z,41.31
2022-08-05T19:47:16.278Z,41.36
2022-08-05T19:50:19.967Z,41.70
2022-08-05T19:54:04.563Z,41.49
2022-08-05T19:56:44.228Z,41.74
2022-08-05T19:59:55.411Z,41.57
2022-08-05T20:03:13.247Z,41.79
2022-08-05T20:06:28.993Z,42.08
2022-08-05T20:09:53.999Z,42.01
2022-08-05T20:12:59.917Z,42.42
2022-08-05T20:16:26.398Z,42.03
2022-08-05T20:19:36.018Z,42.27
2022-08-05T20:22:38.209Z,42.51
2022-08-05T20:25:43.212Z,42.29
2022-08-05T20:28:50.522Z,42.63
2022-08-05T20:31:57.673Z,42.34
2022-08-05T20:34:59.804Z,42.82
2022-08-05T20:38:07.946Z,42.60
2022-08-05T20:41:10.137Z,42.95
2022-08-05T20:44:19.191Z,43.01
2022-08-05T20:47:32.745Z,43.44
2022-08-05T20:50:36.941Z,43.84
2022-08-05T20:53:41.337Z,44.15
2022-08-05T20:56:42.975Z,44.46
2022-08-05T20:59:46.305Z,44.64
2022-08-05T21:03:08.132Z,44.94
2022-08-05T21:06:27.489Z,46.32
2022-08-05T21:09:30.265Z,48.72
2022-08-05T21:12:36.089Z,50.44
2022-08-05T21:15:37.675Z,51.04
2022-08-05T21:18:39.368Z,51.83
2022-08-05T21:21:51.005Z,53.34
2022-08-05T21:24:54.403Z,54.83
2022-08-05T21:27:56.523Z,55.92
2022-08-05T21:30:58.975Z,57.03
2022-08-05T21:34:00.711Z,58.73
2022-08-05T21:37:04.787Z,61.31
2022-08-05T21:40:07.252Z,62.80
2022-08-05T21:43:24.227Z,65.07
2022-08-05T21:46:26.652Z,67.45
2022-08-05T21:49:48.342Z,68.68
2022-08-05T21:52:52.289Z,70.59
2022-08-05T21:56:05.809Z,71.82
2022-08-05T21:59:24.105Z,73.89
2022-08-05T22:02:27.981Z,74.74
2022-08-05T22:05:29.611Z,75.84
2022-08-05T22:08:51.835Z,76.65
2022-08-05T22:11:54.658Z,77.90
2022-08-05T22:14:58.760Z,78.38
2022-08-05T22:18:01.693Z,79.21
2022-08-05T22:21:04.190Z,79.58
2022-08-05T22:24:39.564Z,80.80
2022-08-05T22:28:08.497Z,81.28
2022-08-05T22:31:06.087Z,82.31
2022-08-05T22:34:08.008Z,82.20
2022-08-05T22:37:10.023Z,83.31
2022-08-05T22:40:16.813Z,83.37
2022-08-05T22:43:37.295Z,84.55
2022-08-05T22:46:40.979Z,84.24
2022-08-05T22:50:21.445Z,84.29
2022-08-05T22:53:09.833Z,83.73
2022-08-05T22:56:11.758Z,84.44
2022-08-05T22:59:46.537Z,85.33
2022-08-05T23:02:40.110Z,84.11
2022-08-05T23:05:48.450Z,84.82
2022-08-05T23:08:52.313Z,86.30
2022-08-05T23:11:54.042Z,86.96
2022-08-05T23:14:55.689Z,86.80
2022-08-05T23:18:00.670Z,86.64
2022-08-05T23:21:03.576Z,86.94
2022-08-05T23:24:11.305Z,87.02
2022-08-05T23:27:13.459Z,87.13
2022-08-05T23:30:15.133Z,87.79
2022-08-05T23:33:25.589Z,87.57
2022-08-05T23:36:28.379Z,88.11
2022-08-05T23:39:53.568Z,88.52
2022-08-05T23:42:55.711Z,88.95
2022-08-05T23:45:57.691Z,89.18
2022-08-05T23:49:03.788Z,88.46
2022-08-05T23:52:30.557Z,88.13
2022-08-05T23:55:33.143Z,90.02
2022-08-05T23:58:34.775Z,91.06
